createdAt,value
2022-10-17T00:21:50.349Z,7
2022-10-17T00:50:04.148Z,7
2022-10-17T01:18:18.419Z,7
2022-10-17T01:46:38.672Z,7
2022-10-17T02:14:53.762Z,7
2022-10-17T02:43:17.883Z,9
2022-10-17T03:12:04.598Z,11
2022-10-17T03:41:05.289Z,8
2022-10-17T04:09:56.613Z,8
2022-10-17T04:38:13.568Z,8
2022-10-17T05:06:32.349Z,8
2022-10-17T05:35:36.548Z,8
2022-10-17T06:04:39.219Z,8
2022-10-17T06:33:47.828Z,10
2022-10-17T07:02:58.154Z,7
2022-10-17T07:32:09.952Z,7
2022-10-17T08:01:17.501Z,8
2022-10-17T08:29:30.302Z,8
2022-10-17T08:58:26.339Z,7
2022-10-17T09:26:18.306Z,10
2022-10-17T09:55:00.622Z,7
2022-10-17T10:23:23.779Z,7
2022-10-17T10:51:45.193Z,7
2022-10-17T11:20:18.001Z,7
2022-10-17T11:48:37.229Z,7
2022-10-17T12:16:44.668Z,7
2022-10-17T12:45:11.256Z,7
2022-10-17T13:13:31.388Z,6
2022-10-17T13:42:06.763Z,5
2022-10-17T14:10:28.631Z,6
2022-10-17T14:39:03.908Z,5
2022-10-17T15:07:21.739Z,7
2022-10-17T15:36:15.027Z,8
2022-10-17T16:05:06.679Z,8
2022-10-17T16:33:59.715Z,8
2022-10-17T17:02:52.178Z,13
2022-10-17T17:31:31.091Z,14
2022-10-17T18:00:16.147Z,13
2022-10-17T18:29:10.100Z,16
2022-10-17T18:57:59.137Z,13
2022-10-17T19:26:54.528Z,8
2022-10-17T19:55:49.930Z,10
2022-10-17T20:24:36.783Z,8
2022-10-17T20:53:37.649Z,7
2022-10-17T21:22:00.525Z,7
2022-10-17T21:50:23.319Z,7
2022-10-17T22:19:16.512Z,7
2022-10-17T22:48:08.497Z,7
2022-10-17T23:17:06.284Z,7
2022-10-17T23:46:04.084Z,8
